Loging...

KPDC, Korea Polar Data Center

Korea Polar Data Center Scientific observations and results from Antarctica shall
be exchanged and made freely available

Keyword Search

Advanced Search

Search 29,653 data out of 29,653

Metadata Search Results1
No. Title Reg. Date
1001 [KOPRI-KPDC-00001825]Turbulent flux at the King Sejong station in 2021 2021-10-05
1002 [KOPRI-KPDC-00001824]Horizontal global radiation data at King Sejong Station in the Antarctic, 2021 2021-10-05
1003 [KOPRI-KPDC-00001823]Weather Data of Coldest Cases of the King Sejong Station, Antarctica 2021-10-05
1004 [KOPRI-ROCK-00002159]J-45-2 2021-09-30
1005 [KOPRI-ROCK-00002158]J-45-1 2021-09-30
1006 [KOPRI-ROCK-00002157]J-58 2021-09-30
1007 [KOPRI-ROCK-00002156]SB171130-1 2021-09-30
1008 [KOPRI-ROCK-00002155]SB171127-4D 2021-09-30
1009 [KOPRI-ROCK-00002154]SB171127-4C 2021-09-30
1010 [KOPRI-ROCK-00002153]SB171127-5 2021-09-30
1011 [KOPRI-ROCK-00002152]SB171127-4B 2021-09-30
1012 [KOPRI-ROCK-00002151]SB171127-4A 2021-09-30
1013 [KOPRI-ROCK-00002150]SB171127-3 2021-09-30
1014 [KOPRI-ROCK-00002149]SB171127-2E 2021-09-30
1015 [KOPRI-ROCK-00002148]SB171127-2D 2021-09-30
1016 [KOPRI-ROCK-00002147]SB171127-2C 2021-09-30
1017 [KOPRI-ROCK-00002146]SB171127-2B 2021-09-30
1018 [KOPRI-ROCK-00002145]SB171127-2A 2021-09-30
1019 [KOPRI-ROCK-00002144]SB171127-1E 2021-09-30
1020 [KOPRI-ROCK-00002143]SB171127-1D 2021-09-30
1021 [KOPRI-ROCK-00002142]SB171127-1C 2021-09-30
1022 [KOPRI-ROCK-00002141]SB171127-1B 2021-09-30
1023 [KOPRI-ROCK-00002140]SB171127-1A 2021-09-30
1024 [KOPRI-KPDC-00001795]Ship-borne radiosonde observation data over the Arctic Ocean in the 2021 Araon summer expedition(ARA12A) 2021-09-30
1025 [KOPRI-KPDC-00001794]Ship-borne radiosonde observation data over the Arctic Ocean in the 2021 Araon summer expedition(ARA12B,ARA12C) 2021-09-30
1026 [KOPRI-KPDC-00001788]Genome information of pathogenic fungi isolated from diseased plants identified in KGI, Antarctic Peninsula 2021-09-30
1027 [KOPRI-KPDC-00001787]Cryo-Raman microscope image of ice grain boundaries in the present of cryoprotectant 2021-09-29
1028 [KOPRI-KPDC-00001786]Cryo-Raman chemical mapping image of peroxymonosulfate 2021-09-29
1029 [KOPRI-KPDC-00001785]Cryo-Raman chemical mapping image of organic pollutants in frozen solution 2021-09-29
1030 [KOPRI-KPDC-00001784]HPLC-MS data of 4-chlorophenol decomposition experiment in ice 2021-09-29
1031 [KOPRI-KPDC-00001783]ICP-OES analysis data of mineral formation experiment in ice 2021-09-29
1032 [KOPRI-KPDC-00001782]Ion chromatography data of freezing/thawing experiment 2021-09-29
1033 [KOPRI-KPDC-00001774]Weddell Seal hair sample (196296) 2021-09-28
1034 [KOPRI-KPDC-00001772]Weddell Seal hair sample (196290) 2021-09-28
1035 [KOPRI-KPDC-00001771]Weddell Seal hair sample (196295) 2021-09-28
1036 [KOPRI-KPDC-00001770]Weddell Seal hair sample (196294) 2021-09-28
1037 [KOPRI-KPDC-00001769]Weddell Seal hair sample (196293) 2021-09-28
1038 [KOPRI-KPDC-00001768]Weddell Seal hair sample (196292) 2021-09-28
1039 [KOPRI-KPDC-00001767]Weddell Seal hair sample (196291) 2021-09-28
1040 [KOPRI-KPDC-00001766]Weddell Seal hair sample (196297) 2021-09-28
1041 [KOPRI-KPDC-00001765]Weddell Seal hair sample (196298) 2021-09-28
1042 [KOPRI-KPDC-00001764]Weddell Seal placental sample (JBG201101-PL) 2021-09-28
1043 [KOPRI-KPDC-00001763]Weddell Seal placental sample (JBG201106-PL) 2021-09-28
1044 [KOPRI-KPDC-00001762]Weddell Seal amniotic fluid sample (JBG201106-AF) 2021-09-28
1045 [KOPRI-KPDC-00001761]Weddell Seal amniotic fluid sample (JBG201101-AF) 2021-09-28
1046 [KOPRI-KPDC-00001760]Weddell Seal blood sample (JBG200925-1) 2021-09-28
1047 [KOPRI-KPDC-00001759]Weddell Seal blood sample (JBG200925-2) 2021-09-28
1048 [KOPRI-KPDC-00001758]Weddell Seal blood sample (JBG200925-3) 2021-09-28
1049 [KOPRI-KPDC-00001757]Weddell Seal blood sample (JBG200925-6) 2021-09-28
1050 [KOPRI-KPDC-00001756]Weddell Seal fecal sample (83543) 2021-09-28
1051 [KOPRI-KPDC-00001755]Weddell Seal fecal sample (196290) 2021-09-28
1052 [KOPRI-KPDC-00001754]Weddell Seal fecal sample (196295) 2021-09-28
1053 [KOPRI-KPDC-00001753]CTD Profile (wd16-330-20) 2021-09-28
1054 [KOPRI-KPDC-00001752]CTD Profile (wd16-333-20) 2021-09-28
1055 [KOPRI-KPDC-00001750]CTD Profile (wd16-335-20) 2021-09-28
1056 [KOPRI-KPDC-00001748]CTD Profile (wd16-337-20) 2021-09-28
1057 [KOPRI-KPDC-00001743]CTD Profile (wd16-348-20) 2021-09-28
1058 [KOPRI-KPDC-00001742]CTD Profile (wd16-349-20) 2021-09-28
1059 [KOPRI-KPDC-00001732]CTD Profiles (wd16-329-20) 2021-09-28
1060 [KOPRI-KPDC-00001731]Weddell Seal blood sample (JBG200925-4) 2021-09-28
1061 [KOPRI-KPDC-00001730]Weddell Seal hair sample (196289) 2021-09-28
1062 [KOPRI-KPDC-00001720]Weddell Seal blood sample (JBG200925-5) 2021-09-28
1063 [KOPRI-KPDC-00001729]Weddell Seal hair sample (83535) 2021-09-28
1064 [KOPRI-KPDC-00001728]Weddell Seal hair sample (83543) 2021-09-28
1065 [KOPRI-KPDC-00001727]Weddell Seal hair sample (83540) 2021-09-28
1066 [KOPRI-KPDC-00001726]Weddell Seal hair sample (83539) 2021-09-28
1067 [KOPRI-KPDC-00001725]Weddell Seal hair sample (83536) 2021-09-28
1068 [KOPRI-KPDC-00001724]Weddell Seal hair sample (83533) 2021-09-28
1069 [KOPRI-KPDC-00001723]Weddell Seal hair sample (83529) 2021-09-28
1070 [KOPRI-KPDC-00001722]Weddell Seal hair sample (83542) 2021-09-28
1071 [KOPRI-KPDC-00001721]Weddell Seal fecal sample (83532) 2021-09-28
1072 [KOPRI-KPDC-00001718]Weddell Seal hair sample (83532) 2021-09-28
1073 [KOPRI-KPDC-00001708]Temporal variation of marine phytoplankton in the surface water of the Antarctic Jang Bogo Station in Terra Nova Bay, January 2021 - June 2021 2021-09-27
1074 [KOPRI-KPDC-00001705]Wind data on ARAON DaDis for Arctic cruise, 2021 2021-09-27
1075 [KOPRI-KPDC-00001704]Weather data on ARAON DaDis for Arctic cruise, 2021 2021-09-27
1076 [KOPRI-KPDC-00001703]Thermosalinograph data on ARAON DaDis for Arctic cruise, 2021 2021-09-27
1077 [KOPRI-KPDC-00001702]Motion sensor data on ARAON DaDis for Arctic cruise, 2021 2021-09-27
1078 [KOPRI-KPDC-00001701]Gyro compass data on ARAON DaDis for Arctic cruise, 2021 2021-09-27
1079 [KOPRI-KPDC-00001700]GPS data on ARAON DaDis for Arctic cruise, 2021 2021-09-27
1080 [KOPRI-KPDC-00001699]Fluorometer data on ARAON DaDis for Arctic cruise, 2021 2021-09-27
1081 [KOPRI-KPDC-00001695]Condensation Particle Counter Concentration(CPC 3776 and 3772) at King Sejong Station collected in 2020.11-2021.08 2021-09-24
1082 [KOPRI-KPDC-00001694]Chlorophyll-a concentration from the Ross Sea, Antarctica, 2020 2021-09-24
1083 [KOPRI-KPDC-00001693]Temporal variation of phytoplankton in the surface water of Marian Cove, King George Island, Antarctica, January 2021 - August 2021 2021-09-24
1084 [KOPRI-KPDC-00001679]The complete mitochondrial genome of the Arctic fairy shrimp Branchinecta paludosa (Anostraca, Branchinectidae) from Sirius Passet, North Greenland 2021-09-10
1085 [KOPRI-KVH-00004593]Myriogramme manginii (Gain) Skottsberg (KOPRI-CH4014) 2021-08-19
1086 [KOPRI-KVH-00004592]Gymnogongrus turquetii Hariot 1907 (KOPRI-CH4013) 2021-08-19
1087 [KOPRI-KVH-00004591]Gymnogongrus turquetii Hariot 1907 (KOPRI-CH4012) 2021-08-19
1088 [KOPRI-KVH-00004590]Acrosiphonia arcta (Dillwyn) Gain (KOPRI-CH4011) 2021-08-19
1089 [KOPRI-KVH-00004589]Pantoneura plocamioides Kylin (KOPRI-CH4010) 2021-08-19
1090 [KOPRI-KVH-00004588]Petroderma maculiforme (Wollny) Kuckuck (KOPRI-CH4009) 2021-08-19
1091 [KOPRI-KVH-00004587]Trematocarpus antarcticus (Hariot) Fredericq & R.L.Moe (KOPRI-CH4008) 2021-08-19
1092 [KOPRI-KVH-00004586]Acrosiphonia arcta (Dillwyn) Gain (KOPRI-CH4007) 2021-08-19
1093 [KOPRI-KVH-00004585]Desmarestia menziesii J. Agardh (KOPRI-CH4006) 2021-08-19
1094 [KOPRI-KVH-00004584]Desmarestia menziesii J. Agardh (KOPRI-CH4005) 2021-08-19
1095 [KOPRI-KVH-00004583]Desmarestia anceps Montagne 1842 (KOPRI-CH4004) 2021-08-19
1096 [KOPRI-KVH-00004582]Desmarestia anceps Montagne 1842 (KOPRI-CH4003) 2021-08-19
1097 [KOPRI-KVH-00004581]Desmarestia anceps Montagne 1842 (KOPRI-CH4002) 2021-08-19
1098 [KOPRI-KVH-00004580]Desmarestia anceps Montagne 1842 (KOPRI-CH4001) 2021-08-19
1099 [KOPRI-KVH-00004579]Desmarestia anceps Montagne 1842 (KOPRI-CH4000) 2021-08-19
1100 [KOPRI-KVH-00004578]Desmarestia anceps Montagne 1842 (KOPRI-CH3999) 2021-08-19